Unionville, IN

8:41 AM EDT on April 19, 2015 (GMT -0400)
Sample Road | | Change Station
CLOSE
Current Station
Personal Weather Station
Location: Bloomington, IN
Elevation: 781 ft
Nearby Weather Stations

Elev 781 ft 39.26 °N, 86.51 °W | Updated 6 seconds ago

Overcast
Overcast
63.5 °F
Feels Like 63.5 °F
N
0.4
Wind Variable Wind from SE
Gusts 2.5 mph

Today
High -- | Low -- °F
--% Chance of Precip.
Yesterday
High -- | Low -- °F
Precip. -- in
7:03 AM 8:26 PM
New Moon, 1% visible
Pressure 29.75 in
Visibility 10.0 miles
Clouds Overcast 9500 ft
Dew Point 50 °F
Humidity 60%
Rainfall 0.00 in
Snow Depth Not available.
UV 1.0 out of 12
Pollen 6.10 out of 12
Air Quality Not available.
Flu Activity Local Activity
METAR KBMG 191153Z 12009KT 10SM OVC095 18/07 A2977 RMK AO2 RAB31E40 SLP074 P0000 60000 T01780072 10183 20144 56017

More Conditions Fewer Conditions

Pressure 29.75 in
Visibility 10.0 miles
Clouds Overcast 9500 ft
Dew Point 50 °F
Humidity 60%
Rainfall 0.00 in
Snow Depth Not available.
UV 1.0 out of 12
Pollen 6.10 out of 12
Air Quality Not available.
Flu Activity Local Activity
METAR KBMG 191153Z 12009KT 10SM OVC095 18/07 A2977 RMK AO2 RAB31E40 SLP074 P0000 60000 T01780072 10183 20144 56017

More Conditions Fewer Conditions

10-Day Weather Forecast

Almanac

Astronomy

Apr. 19, 2015 Rise Set
Actual Time
Civil Twilight
Nautical Twilight
Astronomical Twilight
Moon
Length of Visible Light
Length of Day
Tomorrow will be .
, % of the Moon is Illuminated

Today's Extremes

State Highs State Lows

Community

WunderPhotos

Upload Photos

1,814,775 photos uploaded!

WunderBlogs® & News

Nearby

Air Quality

  Air Quality AQ Index Pollutant
Not available.

Snow Depth

Station Depth Elevation

Earthquake Activity

City Distance Mag. Time & Date
Minimum magnitude displayed is 2.5.

Coastal Water Temperatures

Place Temperature

Stations

Nearby Weather Stations

Station Location Temp. Windchill Dew Point Humidity Wind Precip. Elev Updated Type